createdAt,value
2023-03-31T00:00:14.864Z,76.59
2023-03-31T00:02:41.828Z,76.08
2023-03-31T00:05:10.415Z,76.50
2023-03-31T00:07:40.494Z,76.34
2023-03-31T00:10:17.119Z,76.42
2023-03-31T00:12:45.416Z,75.71
2023-03-31T00:15:12.893Z,76.01
2023-03-31T00:17:40.133Z,76.12
2023-03-31T00:20:12.343Z,75.60
2023-03-31T00:22:42.302Z,75.50
2023-03-31T00:25:13.124Z,75.57
2023-03-31T00:27:45.597Z,75.70
2023-03-31T00:30:14.089Z,75.70
2023-03-31T00:32:40.829Z,75.37
2023-03-31T00:35:08.846Z,75.42
2023-03-31T00:37:36.286Z,75.57
2023-03-31T00:40:10.119Z,75.40
2023-03-31T00:42:44.239Z,75.81
2023-03-31T00:45:14.140Z,75.92
2023-03-31T00:47:47.685Z,75.90
2023-03-31T00:50:29.099Z,75.76
2023-03-31T00:53:07.678Z,75.52
2023-03-31T00:55:40.423Z,75.73
2023-03-31T00:58:09.230Z,75.92
2023-03-31T01:00:36.397Z,75.76
2023-03-31T01:03:06.863Z,75.84
2023-03-31T01:05:45.789Z,76.08
2023-03-31T01:08:15.053Z,76.10
2023-03-31T01:10:45.394Z,76.29
2023-03-31T01:13:15.362Z,76.31
2023-03-31T01:15:42.505Z,76.09
2023-03-31T01:18:11.593Z,75.97
2023-03-31T01:21:06.580Z,76.19
2023-03-31T01:23:42.324Z,75.72
2023-03-31T01:26:50.684Z,75.51
2023-03-31T01:29:28.068Z,76.11
2023-03-31T01:32:03.483Z,75.88
2023-03-31T01:35:07.807Z,76.04
2023-03-31T01:37:47.596Z,75.98
2023-03-31T01:40:21.392Z,76.22
2023-03-31T01:43:03.632Z,76.46
2023-03-31T01:45:41.246Z,76.12
2023-03-31T01:48:21.254Z,76.47
2023-03-31T01:50:59.765Z,76.48
2023-03-31T01:53:36.237Z,76.75
2023-03-31T01:56:21.400Z,76.97
2023-03-31T01:58:58.885Z,77.03
2023-03-31T02:01:33.124Z,76.53
2023-03-31T02:04:09.917Z,76.59
2023-03-31T02:06:50.009Z,76.43
2023-03-31T02:09:24.195Z,76.35
2023-03-31T02:11:53.332Z,76.90
2023-03-31T02:14:24.662Z,77.28
2023-03-31T02:16:58.475Z,77.61
2023-03-31T02:19:31.747Z,77.36
2023-03-31T02:21:59.731Z,77.55
2023-03-31T02:24:28.602Z,77.23
2023-03-31T02:27:06.571Z,77.24
2023-03-31T02:29:34.230Z,77.42
2023-03-31T02:32:23.134Z,77.71
2023-03-31T02:34:52.305Z,77.43
2023-03-31T02:37:19.005Z,77.82
2023-03-31T02:39:49.472Z,78.42
2023-03-31T02:42:16.945Z,79.04
2023-03-31T02:44:43.918Z,79.56
2023-03-31T02:47:14.251Z,79.72
2023-03-31T02:49:52.185Z,79.83
2023-03-31T02:52:33.100Z,80.07
2023-03-31T02:55:48.151Z,80.31
2023-03-31T02:58:34.707Z,80.03
2023-03-31T03:01:15.851Z,79.95
2023-03-31T03:03:52.447Z,79.56
2023-03-31T03:06:44.246Z,79.44
2023-03-31T03:09:39.699Z,79.20
2023-03-31T03:12:41.836Z,78.82
2023-03-31T03:15:33.358Z,78.53
2023-03-31T03:18:00.590Z,78.76
2023-03-31T03:20:27.985Z,78.35
2023-03-31T03:22:54.769Z,78.22
2023-03-31T03:25:21.543Z,78.32
2023-03-31T03:27:53.855Z,78.20
2023-03-31T03:30:20.801Z,78.32
2023-03-31T03:32:47.547Z,78.20
2023-03-31T03:35:14.592Z,78.27
2023-03-31T03:37:41.260Z,78.38
2023-03-31T03:40:08.919Z,78.46
2023-03-31T03:42:36.108Z,78.32
2023-03-31T03:45:03.032Z,77.98
2023-03-31T03:47:29.827Z,77.66
2023-03-31T03:49:56.705Z,77.48
2023-03-31T03:52:23.406Z,77.54
2023-03-31T03:54:50.444Z,77.45
2023-03-31T03:57:17.284Z,77.39
2023-03-31T03:59:44.022Z,77.70
2023-03-31T04:02:10.905Z,77.35
2023-03-31T04:04:37.762Z,77.23
2023-03-31T04:07:04.537Z,77.20
2023-03-31T04:09:31.414Z,77.38
2023-03-31T04:11:59.340Z,77.42
2023-03-31T04:14:26.611Z,77.25
2023-03-31T04:16:56.494Z,77.29
2023-03-31T04:19:26.174Z,77.35
2023-03-31T04:21:59.151Z,77.46
2023-03-31T04:24:30.971Z,77.50
2023-03-31T04:26:58.580Z,77.25
2023-03-31T04:29:28.504Z,77.79
2023-03-31T04:31:59.349Z,77.70
2023-03-31T04:34:34.927Z,77.66
2023-03-31T04:37:03.077Z,77.68
2023-03-31T04:39:31.109Z,77.91
2023-03-31T04:41:59.896Z,77.61
2023-03-31T04:44:27.432Z,78.01
2023-03-31T04:46:54.681Z,78.43
2023-03-31T04:49:21.435Z,78.53
2023-03-31T04:51:48.304Z,78.25
2023-03-31T04:54:15.177Z,78.30
2023-03-31T04:56:42.288Z,78.26
2023-03-31T04:59:09.093Z,78.13
2023-03-31T05:01:36.602Z,78.02
2023-03-31T05:04:05.611Z,77.93
2023-03-31T05:06:33.184Z,77.64
2023-03-31T05:09:00.339Z,77.66
2023-03-31T05:11:27.548Z,78.03
2023-03-31T05:13:54.737Z,77.83
2023-03-31T05:16:21.818Z,77.61
2023-03-31T05:18:48.708Z,77.80
2023-03-31T05:21:18.104Z,77.59
2023-03-31T05:23:46.061Z,77.84
2023-03-31T05:26:13.929Z,77.94
2023-03-31T05:28:41.456Z,77.60
2023-03-31T05:31:09.777Z,77.75
2023-03-31T05:33:40.472Z,77.84
2023-03-31T05:36:12.721Z,77.89
2023-03-31T05:38:40.298Z,77.50
2023-03-31T05:41:09.426Z,77.40
2023-03-31T05:43:37.818Z,77.81
2023-03-31T05:46:06.741Z,78.00
2023-03-31T05:48:33.969Z,77.93
2023-03-31T05:51:01.831Z,77.83
2023-03-31T05:53:29.169Z,77.97
2023-03-31T05:56:00.679Z,77.95
2023-03-31T05:58:28.592Z,77.95
2023-03-31T06:01:25.082Z,77.38
2023-03-31T06:03:51.965Z,76.97
2023-03-31T06:06:19.519Z,77.11
2023-03-31T06:08:47.371Z,77.52
2023-03-31T06:11:17.265Z,77.75
2023-03-31T06:13:44.220Z,78.03
2023-03-31T06:16:13.383Z,78.23
2023-03-31T06:18:40.867Z,77.96
2023-03-31T06:21:08.472Z,78.17
2023-03-31T06:23:38.273Z,78.15
2023-03-31T06:26:08.540Z,78.02
2023-03-31T06:28:36.872Z,78.14
2023-03-31T06:31:09.469Z,77.74
2023-03-31T06:33:36.855Z,77.56
2023-03-31T06:36:05.804Z,77.70
2023-03-31T06:38:34.713Z,77.85
2023-03-31T06:41:01.956Z,77.65
2023-03-31T06:43:29.086Z,77.52
2023-03-31T06:45:56.563Z,78.09
2023-03-31T06:48:25.390Z,77.94
2023-03-31T06:50:54.396Z,77.95
2023-03-31T06:53:22.380Z,77.89
2023-03-31T06:55:52.127Z,78.11
2023-03-31T06:58:19.138Z,78.18
2023-03-31T07:00:48.543Z,78.08
2023-03-31T07:03:18.993Z,78.30
2023-03-31T07:05:50.443Z,78.28
2023-03-31T07:08:17.880Z,77.98
2023-03-31T07:10:47.753Z,77.86
2023-03-31T07:13:16.499Z,77.99
2023-03-31T07:15:43.893Z,77.45
2023-03-31T07:18:10.874Z,77.55
2023-03-31T07:20:38.150Z,77.63
2023-03-31T07:23:06.781Z,78.58
2023-03-31T07:25:33.432Z,78.16
2023-03-31T07:28:00.516Z,77.94
2023-03-31T07:30:27.728Z,78.21
2023-03-31T07:32:54.822Z,78.01
2023-03-31T07:35:23.098Z,78.05
2023-03-31T07:37:51.724Z,77.96
2023-03-31T07:40:22.535Z,78.04
2023-03-31T07:42:52.191Z,78.19
2023-03-31T07:45:21.802Z,78.26
2023-03-31T07:47:49.475Z,77.34
2023-03-31T07:50:17.339Z,77.53
2023-03-31T07:52:47.081Z,78.09
2023-03-31T07:55:14.574Z,78.48
2023-03-31T07:57:42.368Z,78.41
2023-03-31T08:00:12.865Z,77.96
2023-03-31T08:02:42.900Z,77.60
2023-03-31T08:05:12.269Z,76.73
2023-03-31T08:07:42.100Z,77.11
2023-03-31T08:10:12.638Z,77.48
2023-03-31T08:12:39.399Z,76.96
2023-03-31T08:15:06.928Z,77.21
2023-03-31T08:17:33.901Z,76.94
2023-03-31T08:20:03.910Z,77.21
2023-03-31T08:22:33.497Z,77.59
2023-03-31T08:25:00.441Z,77.99
2023-03-31T08:27:27.284Z,77.86
2023-03-31T08:29:54.071Z,77.82
2023-03-31T08:32:24.511Z,77.34
2023-03-31T08:34:54.345Z,77.40
2023-03-31T08:37:21.414Z,77.71
2023-03-31T08:39:48.486Z,78.43
2023-03-31T08:42:20.445Z,78.09
2023-03-31T08:44:54.805Z,77.81
2023-03-31T08:47:25.079Z,78.18
2023-03-31T08:49:56.811Z,78.05
2023-03-31T08:52:35.003Z,77.68
2023-03-31T08:55:07.778Z,77.99
2023-03-31T08:58:08.170Z,78.12
2023-03-31T09:00:46.886Z,77.74
2023-03-31T09:03:30.475Z,77.02
2023-03-31T09:06:20.894Z,77.28
2023-03-31T09:08:47.696Z,77.05
2023-03-31T09:11:19.125Z,77.68
2023-03-31T09:14:10.470Z,77.33
2023-03-31T09:16:58.564Z,77.06
2023-03-31T09:19:31.427Z,77.41
2023-03-31T09:22:01.576Z,77.33
2023-03-31T09:24:33.259Z,77.79
2023-03-31T09:27:08.720Z,78.42
2023-03-31T09:29:44.007Z,78.42
2023-03-31T09:32:24.765Z,78.06
2023-03-31T09:34:57.446Z,78.19
2023-03-31T09:37:29.137Z,77.56
2023-03-31T09:39:58.458Z,77.54
2023-03-31T09:42:25.606Z,77.80
2023-03-31T09:44:52.566Z,77.78
2023-03-31T09:47:32.510Z,77.87
2023-03-31T09:49:59.741Z,78.04
2023-03-31T09:52:33.595Z,78.45
2023-03-31T09:55:32.078Z,78.71
2023-03-31T09:58:07.852Z,78.60
2023-03-31T10:00:35.839Z,78.23
2023-03-31T10:03:08.329Z,78.48
2023-03-31T10:05:40.052Z,78.27
2023-03-31T10:08:34.490Z,78.74
2023-03-31T10:11:04.535Z,78.74
2023-03-31T10:13:54.514Z,78.60
2023-03-31T10:16:28.409Z,77.79
2023-03-31T10:18:55.352Z,78.03
2023-03-31T10:21:27.837Z,77.31
2023-03-31T10:23:55.337Z,78.05
2023-03-31T10:26:27.027Z,77.59
2023-03-31T10:28:55.854Z,78.20
2023-03-31T10:31:27.171Z,78.31
2023-03-31T10:33:55.222Z,78.55
2023-03-31T10:36:26.355Z,78.81
2023-03-31T10:38:54.377Z,78.63
2023-03-31T10:41:25.059Z,78.42
2023-03-31T10:43:54.633Z,78.97
2023-03-31T10:46:39.146Z,79.27
2023-03-31T10:49:16.461Z,78.99
2023-03-31T10:51:57.774Z,78.68
2023-03-31T10:54:25.811Z,78.65
2023-03-31T10:56:56.560Z,78.33
2023-03-31T10:59:41.987Z,78.83
2023-03-31T11:02:47.366Z,79.36
2023-03-31T11:05:32.701Z,79.13
2023-03-31T11:08:05.480Z,79.49
2023-03-31T11:10:43.296Z,79.68
2023-03-31T11:13:10.141Z,79.77
2023-03-31T11:15:48.461Z,80.36
2023-03-31T11:18:43.510Z,80.48
2023-03-31T11:21:54.726Z,80.94
2023-03-31T11:24:32.909Z,80.51
2023-03-31T11:27:27.226Z,80.17
2023-03-31T11:30:29.444Z,80.30
2023-03-31T11:33:15.396Z,79.97
2023-03-31T11:35:43.883Z,80.44
2023-03-31T11:38:39.895Z,80.34
2023-03-31T11:41:32.821Z,80.60
2023-03-31T11:44:05.213Z,80.57
2023-03-31T11:46:38.153Z,80.28
2023-03-31T11:49:10.120Z,80.19
2023-03-31T11:51:44.353Z,80.59
2023-03-31T11:54:51.729Z,80.50
2023-03-31T11:57:34.076Z,80.67
2023-03-31T12:00:13.904Z,81.03
2023-03-31T12:02:46.318Z,81.47
2023-03-31T12:05:16.364Z,82.27
2023-03-31T12:08:01.409Z,82.99
2023-03-31T12:10:39.634Z,83.51
2023-03-31T12:13:31.415Z,84.19
2023-03-31T12:16:09.558Z,84.76
2023-03-31T12:18:55.157Z,84.38
2023-03-31T12:21:23.712Z,84.13
2023-03-31T12:23:50.583Z,84.46
2023-03-31T12:26:28.759Z,84.48
2023-03-31T12:29:00.937Z,84.50
2023-03-31T12:31:30.618Z,84.52
2023-03-31T12:34:10.717Z,83.60
2023-03-31T12:36:43.647Z,82.69
2023-03-31T12:39:36.124Z,81.84
2023-03-31T12:42:09.009Z,81.90
2023-03-31T12:45:01.487Z,82.13
2023-03-31T12:47:47.571Z,81.98
2023-03-31T12:50:27.155Z,81.23
2023-03-31T12:53:12.836Z,80.87
2023-03-31T12:55:45.868Z,80.38
2023-03-31T12:58:25.170Z,80.10
2023-03-31T13:01:16.278Z,80.02
2023-03-31T13:03:47.272Z,79.73
2023-03-31T13:06:37.028Z,79.06
2023-03-31T13:09:08.627Z,78.72
2023-03-31T13:11:38.070Z,78.87
2023-03-31T13:14:17.109Z,79.16
2023-03-31T13:16:44.153Z,79.41
2023-03-31T13:19:13.456Z,79.11
2023-03-31T13:21:55.061Z,78.67
2023-03-31T13:24:23.801Z,79.17
2023-03-31T13:26:52.625Z,79.11
2023-03-31T13:29:22.041Z,79.13
2023-03-31T13:32:01.248Z,79.53
2023-03-31T13:34:35.168Z,79.22
2023-03-31T13:37:34.413Z,79.78
2023-03-31T13:40:21.439Z,79.11
2023-03-31T13:43:26.524Z,79.36
2023-03-31T13:46:21.445Z,79.33
2023-03-31T13:49:12.599Z,79.56
2023-03-31T13:51:51.728Z,79.54
2023-03-31T13:54:30.644Z,79.39
2023-03-31T13:57:29.323Z,80.08
2023-03-31T14:00:18.375Z,80.75
2023-03-31T14:02:51.489Z,80.34
2023-03-31T14:05:43.414Z,80.02
2023-03-31T14:08:14.983Z,79.86
2023-03-31T14:10:43.052Z,80.23
2023-03-31T14:13:17.022Z,81.19
2023-03-31T14:15:58.020Z,81.68
2023-03-31T14:18:37.050Z,81.97
2023-03-31T14:21:17.967Z,82.04
2023-03-31T14:23:57.960Z,82.05
2023-03-31T14:26:40.138Z,81.68
2023-03-31T14:29:34.744Z,82.08
2023-03-31T14:32:18.856Z,82.90
2023-03-31T14:35:08.046Z,83.24
2023-03-31T14:37:35.134Z,84.10
2023-03-31T14:40:03.553Z,84.73
2023-03-31T14:42:38.458Z,85.44
2023-03-31T14:45:15.546Z,85.83
2023-03-31T14:47:42.181Z,86.36
2023-03-31T14:50:13.465Z,86.72
2023-03-31T14:52:41.020Z,87.16
2023-03-31T14:55:15.838Z,87.03
2023-03-31T14:57:45.872Z,87.54
2023-03-31T15:00:17.538Z,87.78
2023-03-31T15:02:47.066Z,88.24
2023-03-31T15:05:32.910Z,88.46
2023-03-31T15:08:08.679Z,88.28
2023-03-31T15:10:40.912Z,88.69
2023-03-31T15:13:16.956Z,88.90
2023-03-31T15:15:46.290Z,89.02
2023-03-31T15:18:16.212Z,88.59
2023-03-31T15:20:45.001Z,88.52
2023-03-31T15:23:27.940Z,88.90
2023-03-31T15:25:59.033Z,89.23
2023-03-31T15:28:27.860Z,89.26
2023-03-31T15:31:09.089Z,89.25
2023-03-31T15:33:41.811Z,88.97
2023-03-31T15:36:12.136Z,89.20
2023-03-31T15:38:39.904Z,89.07
2023-03-31T15:41:17.548Z,89.01
2023-03-31T15:43:52.920Z,88.91
2023-03-31T15:46:49.463Z,89.10
2023-03-31T15:49:25.560Z,89.02
2023-03-31T15:51:53.262Z,89.24
2023-03-31T15:54:41.344Z,89.55
2023-03-31T15:57:09.755Z,89.96
2023-03-31T15:59:56.972Z,89.48
2023-03-31T16:02:27.627Z,89.80
2023-03-31T16:04:58.042Z,89.84
2023-03-31T16:07:33.512Z,89.80
2023-03-31T16:10:06.268Z,89.84
2023-03-31T16:12:59.255Z,89.76
2023-03-31T16:15:40.543Z,89.86
2023-03-31T16:18:10.117Z,89.73
2023-03-31T16:20:42.838Z,89.44
2023-03-31T16:23:19.736Z,89.48
2023-03-31T16:25:47.147Z,89.46
2023-03-31T16:28:17.459Z,89.87
2023-03-31T16:30:45.490Z,89.51
2023-03-31T16:33:13.555Z,89.55
2023-03-31T16:35:53.921Z,89.64
2023-03-31T16:38:23.102Z,89.59
2023-03-31T16:40:53.219Z,89.74
2023-03-31T16:43:21.429Z,89.70
2023-03-31T16:45:53.774Z,89.55
2023-03-31T16:48:23.055Z,89.53
2023-03-31T16:50:52.971Z,89.95
2023-03-31T16:53:26.602Z,89.81
2023-03-31T16:55:54.043Z,89.93
2023-03-31T16:58:21.240Z,90.16
2023-03-31T17:00:48.225Z,89.82
2023-03-31T17:03:16.601Z,90.07
2023-03-31T17:05:50.913Z,90.15
2023-03-31T17:08:17.654Z,90.33
2023-03-31T17:10:52.323Z,90.46
2023-03-31T17:13:19.266Z,90.54
2023-03-31T17:15:46.332Z,90.78
2023-03-31T17:18:13.332Z,90.94
2023-03-31T17:20:40.158Z,90.96
2023-03-31T17:23:07.928Z,91.19
2023-03-31T17:25:36.221Z,91.23
2023-03-31T17:28:04.409Z,91.10
2023-03-31T17:30:32.562Z,90.94
2023-03-31T17:33:00.301Z,91.32
2023-03-31T17:35:27.110Z,91.41
2023-03-31T17:37:54.472Z,91.41
2023-03-31T17:40:26.713Z,91.28
2023-03-31T17:42:54.417Z,91.13
2023-03-31T17:45:21.736Z,91.29
2023-03-31T17:47:48.509Z,91.55
2023-03-31T17:50:15.421Z,91.69
2023-03-31T17:52:42.487Z,91.53
2023-03-31T17:55:10.744Z,91.39
2023-03-31T17:57:37.847Z,91.63
2023-03-31T18:00:06.152Z,91.27
2023-03-31T18:02:40.822Z,91.23
2023-03-31T18:05:08.772Z,91.42
2023-03-31T18:07:36.504Z,91.51
2023-03-31T18:10:05.550Z,91.24
2023-03-31T18:12:34.448Z,91.37
2023-03-31T18:15:02.858Z,91.25
2023-03-31T18:17:31.402Z,91.31
2023-03-31T18:19:59.217Z,91.56
2023-03-31T18:22:26.423Z,91.79
2023-03-31T18:24:53.237Z,91.65
2023-03-31T18:27:20.072Z,91.64
2023-03-31T18:29:46.873Z,91.71
2023-03-31T18:32:13.928Z,91.20
2023-03-31T18:34:40.834Z,91.43
2023-03-31T18:37:08.113Z,91.66
2023-03-31T18:39:35.355Z,91.35
2023-03-31T18:42:03.056Z,91.24
2023-03-31T18:44:30.010Z,91.27
2023-03-31T18:46:56.939Z,90.84
2023-03-31T18:49:23.885Z,90.76
2023-03-31T18:51:51.679Z,91.37
2023-03-31T18:54:20.972Z,91.92
2023-03-31T18:56:47.819Z,92.05
2023-03-31T18:59:14.789Z,91.99
2023-03-31T19:01:42.082Z,92.10
2023-03-31T19:04:09.708Z,92.47
2023-03-31T19:06:36.637Z,92.27
2023-03-31T19:09:03.982Z,92.52
2023-03-31T19:11:30.961Z,92.66
2023-03-31T19:13:57.753Z,92.53
2023-03-31T19:16:26.811Z,92.46
2023-03-31T19:18:54.543Z,92.95
2023-03-31T19:21:22.185Z,92.49
2023-03-31T19:23:49.144Z,92.16
2023-03-31T19:26:19.476Z,91.92
2023-03-31T19:28:48.114Z,91.50
2023-03-31T19:31:15.862Z,91.30
2023-03-31T19:33:43.004Z,91.45
2023-03-31T19:36:10.032Z,91.66
2023-03-31T19:38:37.086Z,91.86
2023-03-31T19:41:05.689Z,92.11
2023-03-31T19:43:33.394Z,92.19
2023-03-31T19:46:01.405Z,92.24
2023-03-31T19:48:31.436Z,92.28
2023-03-31T19:51:00.644Z,91.86
2023-03-31T19:53:27.979Z,91.74
2023-03-31T19:56:11.897Z,91.73
2023-03-31T19:58:40.655Z,91.79
2023-03-31T20:01:13.880Z,91.65
2023-03-31T20:03:40.809Z,91.75
2023-03-31T20:06:13.877Z,92.04
2023-03-31T20:08:42.931Z,92.28
2023-03-31T20:11:12.598Z,92.21
2023-03-31T20:13:41.333Z,93.28
2023-03-31T20:16:15.051Z,93.93
2023-03-31T20:18:43.693Z,93.73
2023-03-31T20:21:13.454Z,95.13
2023-03-31T20:23:41.903Z,94.53
2023-03-31T20:26:11.168Z,94.52
2023-03-31T20:28:38.548Z,94.27
2023-03-31T20:31:11.527Z,94.11
2023-03-31T20:33:38.894Z,94.20
2023-03-31T20:36:08.362Z,93.91
2023-03-31T20:38:44.427Z,93.65
2023-03-31T20:41:11.640Z,93.41
2023-03-31T20:43:38.690Z,93.47
2023-03-31T20:46:07.555Z,93.30
2023-03-31T20:48:40.706Z,93.09
2023-03-31T20:51:10.383Z,93.15
2023-03-31T20:53:43.710Z,93.32
2023-03-31T20:56:14.792Z,93.29
2023-03-31T20:58:43.928Z,93.31
2023-03-31T21:01:12.533Z,92.90
2023-03-31T21:03:39.937Z,92.92
2023-03-31T21:06:11.279Z,92.97
2023-03-31T21:08:39.366Z,93.20
2023-03-31T21:11:06.545Z,93.36
2023-03-31T21:13:33.497Z,93.29
2023-03-31T21:16:01.467Z,93.52
2023-03-31T21:18:32.586Z,93.70
2023-03-31T21:21:01.890Z,93.71
2023-03-31T21:23:29.963Z,94.91
2023-03-31T21:26:00.085Z,95.53
2023-03-31T21:28:29.673Z,95.51
2023-03-31T21:31:02.075Z,95.36
2023-03-31T21:33:30.506Z,95.70
2023-03-31T21:35:58.597Z,95.89
2023-03-31T21:38:26.395Z,95.98
2023-03-31T21:40:53.718Z,95.55
2023-03-31T21:43:20.887Z,95.40
2023-03-31T21:45:48.512Z,95.48
2023-03-31T21:48:15.529Z,95.45
2023-03-31T21:50:42.392Z,95.29
2023-03-31T21:53:10.946Z,94.98
2023-03-31T21:55:38.143Z,95.06
2023-03-31T21:58:06.021Z,95.01
2023-03-31T22:00:32.951Z,94.87
2023-03-31T22:03:11.194Z,94.39
2023-03-31T22:05:46.817Z,94.59
2023-03-31T22:08:13.648Z,94.68
2023-03-31T22:10:40.488Z,94.58
2023-03-31T22:13:07.315Z,94.86
2023-03-31T22:15:34.397Z,95.28
2023-03-31T22:18:01.711Z,95.68
2023-03-31T22:20:28.592Z,95.50
2023-03-31T22:22:55.571Z,95.16
2023-03-31T22:25:22.603Z,95.06
2023-03-31T22:27:49.434Z,94.87
2023-03-31T22:30:16.395Z,94.74
2023-03-31T22:32:43.119Z,94.25
2023-03-31T22:35:10.167Z,94.23
2023-03-31T22:37:37.037Z,94.14
2023-03-31T22:40:05.018Z,93.90
2023-03-31T22:42:32.735Z,93.35
2023-03-31T22:44:59.584Z,92.60
2023-03-31T22:47:26.717Z,92.88
2023-03-31T22:49:54.016Z,93.01
2023-03-31T22:52:21.062Z,93.23
2023-03-31T22:54:48.170Z,93.38
2023-03-31T22:57:15.399Z,93.16
2023-03-31T22:59:42.526Z,93.19
2023-03-31T23:02:09.324Z,93.46
2023-03-31T23:04:36.740Z,92.73
2023-03-31T23:07:03.956Z,94.51
2023-03-31T23:09:30.904Z,95.10
2023-03-31T23:11:57.656Z,94.49
2023-03-31T23:14:24.591Z,95.04
2023-03-31T23:16:52.252Z,95.27
2023-03-31T23:19:19.814Z,93.85
2023-03-31T23:21:46.611Z,94.39
2023-03-31T23:24:13.543Z,94.33
2023-03-31T23:26:40.987Z,94.21
2023-03-31T23:29:08.166Z,93.59
2023-03-31T23:31:35.341Z,92.54
2023-03-31T23:34:02.386Z,92.32
2023-03-31T23:36:29.696Z,92.08
2023-03-31T23:38:57.573Z,90.81
2023-03-31T23:41:26.575Z,91.62
2023-03-31T23:43:54.671Z,92.01
2023-03-31T23:46:21.756Z,90.52
2023-03-31T23:48:48.778Z,91.73
2023-03-31T23:51:15.775Z,90.64
2023-03-31T23:53:42.735Z,91.50
2023-03-31T23:56:12.361Z,91.08
2023-03-31T23:58:40.753Z,90.59
